• Join FlightAware (Why Join?)
  • Login
  • US Flag 
11:51PM EST


 

Airport Tracker/Info


-or-


 

Live Flight TrackerFlight Track Log ✈ MMN26 ✈ 01-May-2013 ✈ KTEB - KBED

Flight Track Log - Related Links

Times and Time Zones

All times are in EDT time to prevent confusion due to time zone crossing. See the MMN26 flight status page for this flight to view local times or setup timezone preferences in your user account.

Time Position Orientation Groundspeed Altitude Reporting Facility
EDT Latitude Longitude Course Direction KTS MPH feet Rate Location/Type
05:12PM 40.8333 -74.0833 255° West 175 201 1,300  Level New York TRACON
05:13PM 40.8167 -74.1667 255° West 215 247 2,600 2,040 Climbing New York TRACON
05:14PM 40.8333 -74.2333 288° West 236 272 5,400 1,680 Climbing New York TRACON
05:15PM 40.9167 -74.2333 360° North 274 315 6,100 300 Climbing New York TRACON
05:16PM 40.9833 -74.2167 11° North 270 311 6,100 -60 Level New York TRACON
05:17PM 41.0500 -74.1833 21° North 266 306 6,000 1,020 Descending New York TRACON
05:18PM 41.1167 -74.1333 29° Northeast 271 312 8,200 2,100 Climbing New York TRACON
05:20PM 41.1667 -74.0329 57° Northeast  Level Estimated
05:20PM 41.1667 -73.9167 57° Northeast 335 386 12,400  Level New York TRACON
05:23PM 41.2456 -73.6464 69° East 367 422 15,000 780 Climbing Boston Center
05:24PM 41.2950 -73.5067 65° Northeast 374 430 14,900  Descending Boston Center
05:25PM 41.3378 -73.3911 64° Northeast 379 436 15,000  Climbing Boston Center
05:26PM 41.3761 -73.2867 64° Northeast 384 442 15,000 -60 Level Boston Center
05:27PM 41.4314 -73.1322 64° Northeast 384 442 14,900 -60 Descending Boston Center
05:28PM 41.4842 -72.9914 63° Northeast 384 442 14,900  Level Boston Center
05:29PM 41.5264 -72.8728 65° Northeast 384 442 15,000  Climbing Boston Center
05:30PM 41.5769 -72.7314 64° Northeast 384 442 15,000 -60 Level Boston Center
05:31PM 41.6186 -72.6122 65° Northeast 384 442 14,900 -420 Descending Boston Center
05:31PM 41.6375 -72.5622 63° Northeast 389 448 14,500 -1,260 Descending Boston Center
05:32PM 41.6897 -72.4928 45° Northeast 378 435 13,400 -1,380 Descending Boston Center
05:33PM 41.7878 -72.3872 39° Northeast 369 425 11,900 -1,200 Descending Boston Center
05:34PM 41.8647 -72.3036 39° Northeast 369 425 11,100 -480 Descending Boston Center
05:35PM 41.9417 -72.2167 40° Northeast 363 418 11,000 -480 Descending Boston Center
05:36PM 42.0019 -72.1467 41° Northeast 330 380 10,200 -1,140 Descending Boston Center
05:36PM 42.0228 -72.1242 39° Northeast 288 331 9,600 -2,340 Descending Boston Center
05:37PM 42.0808 -72.0569 41° Northeast 280 322 7,300 -1,980 Descending Boston Center
05:38PM 42.1389 -71.9894 41° Northeast 263 303 5,600 -1,200 Descending Boston Center
05:39PM 42.1806 -71.9442 39° Northeast 266 306 5,000 -360 Descending Boston Center
05:40PM 42.2508 -71.8650 40° Northeast 266 306 5,000  Level Boston Center
05:41PM 42.3089 -71.8000 40° Northeast 266 306 5,000 -60 Level Boston Center
05:42PM 42.3650 -71.7433 37° Northeast 256 295 4,900 -60 Descending Boston Center
05:43PM 42.4125 -71.7033 32° Northeast 233 268 4,900 -120 Level Boston Center
05:44PM 42.4708 -71.6717 22° Northeast 212 244 4,700 -480 Descending Boston Center
05:45PM 42.5081 -71.6289 40° Northeast 190 219 4,000 -540 Descending Boston Center
05:45PM 42.5167 -71.6000 68° East 204 235 4,000 -540 Level KA90
05:46PM 42.5167 -71.5333 90° East 165 190 3,300 -720 Descending KA90
05:47PM 42.4833 -71.4667 124° Southeast 161 185 2,600 -720 Descending KA90
05:48PM 42.4833 -71.4167 90° East 134 154 1,900 -720 Descending KA90
05:49PM 42.4833 -71.3667 90° East 115 132 1,200 -600 Descending KA90
05:50PM 42.4833 -71.3333 90° East 111 128 700 -600 Descending KA90